Time;durP1;ratioP1;P1;durP2;ratioP2;P2;SDS_P1;SDS_P2;PMS_P1;PMS_P2;Temp;Humidity;BMP_temperature;BMP_pressure;BME280_temperature;BME280_humidity;BME280_pressure;Samples;Min_cycle;Max_cycle;Signal;HPM_P1;HPM_P2
2022/08/31 00:04:10;;;;;;;1.47;0.60;;;12.50;99.90;;;;;;5046017;28;20222;-46
2022/08/31 00:06:38;;;;;;;0.43;0.30;;;12.50;99.90;;;;;;5042915;28;20271;-43
2022/08/31 00:09:06;;;;;;;0.47;0.40;;;12.20;99.90;;;;;;5043263;28;20253;-43
2022/08/31 00:11:34;;;;;;;0.37;0.37;;;12.40;99.90;;;;;;5041485;28;20188;-43
2022/08/31 00:14:05;;;;;;;0.87;0.87;;;12.30;99.90;;;;;;5045573;28;20227;-45
2022/08/31 00:16:34;;;;;;;0.30;0.30;;;12.30;99.90;;;;;;5034514;28;20219;-40
2022/08/31 00:19:01;;;;;;;1.30;0.40;;;12.30;99.90;;;;;;5046005;28;20195;-42
2022/08/31 00:21:28;;;;;;;1.10;0.50;;;12.30;99.90;;;;;;5041522;28;20215;-43
2022/08/31 00:23:56;;;;;;;0.33;0.33;;;12.30;99.90;;;;;;5041862;28;20245;-46
2022/08/31 00:26:24;;;;;;;0.53;0.50;;;12.30;99.90;;;;;;5042405;28;20285;-42
2022/08/31 00:28:52;;;;;;;1.73;0.40;;;12.30;99.90;;;;;;5045531;28;20664;-43
2022/08/31 00:31:19;;;;;;;0.50;0.50;;;12.20;99.90;;;;;;5033940;28;20730;-41
2022/08/31 00:33:51;;;;;;;0.40;0.40;;;12.20;99.90;;;;;;5042499;28;20215;-41
2022/08/31 00:36:20;;;;;;;0.40;0.40;;;12.10;99.90;;;;;;5043908;28;20215;-42
2022/08/31 00:38:48;;;;;;;0.43;0.43;;;12.10;99.90;;;;;;5042251;28;20203;-42
2022/08/31 00:41:18;;;;;;;1.90;0.57;;;12.00;99.90;;;;;;5043039;28;20229;-45
2022/08/31 00:43:49;;;;;;;0.60;0.40;;;12.00;99.90;;;;;;5042373;28;20223;-44
2022/08/31 00:46:19;;;;;;;0.30;0.30;;;11.90;99.90;;;;;;5037353;28;20207;-46
2022/08/31 00:48:54;;;;;;;2.97;0.30;;;11.90;99.90;;;;;;5043887;28;20290;-42
2022/08/31 00:51:22;;;;;;;1.20;0.40;;;11.90;99.90;;;;;;5042117;28;20278;-41
2022/08/31 00:53:49;;;;;;;0.60;0.30;;;11.90;99.90;;;;;;5035926;28;20188;-45
2022/08/31 00:56:17;;;;;;;0.60;0.40;;;11.90;99.90;;;;;;5041793;28;20265;-44
2022/08/31 00:58:46;;;;;;;0.40;0.40;;;11.90;99.90;;;;;;5042415;28;20968;-42
2022/08/31 01:01:14;;;;;;;0.70;0.40;;;12.00;99.90;;;;;;5040398;28;20249;-42
2022/08/31 01:03:40;;;;;;;0.70;0.40;;;12.00;99.90;;;;;;5038982;28;20289;-43
2022/08/31 01:06:08;;;;;;;0.70;0.40;;;12.00;99.90;;;;;;5045014;28;20241;-44
2022/08/31 01:08:35;;;;;;;0.40;0.30;;;12.00;99.90;;;;;;5041775;28;20187;-42
2022/08/31 01:11:02;;;;;;;0.37;0.37;;;12.00;99.90;;;;;;5040815;28;20554;-45
2022/08/31 01:13:31;;;;;;;1.53;0.40;;;12.00;99.90;;;;;;5039267;28;20238;-46
2022/08/31 01:16:03;;;;;;;0.50;0.40;;;12.00;99.90;;;;;;5046588;28;20206;-45
2022/08/31 01:18:31;;;;;;;1.27;0.93;;;12.00;99.90;;;;;;5032295;28;20211;-42
2022/08/31 01:21:06;;;;;;;0.37;0.37;;;11.90;99.90;;;;;;5043297;28;20207;-42
2022/08/31 01:23:38;;;;;;;1.17;0.30;;;11.90;99.90;;;;;;5039011;28;20226;-41
2022/08/31 01:26:07;;;;;;;1.80;0.60;;;12.00;99.90;;;;;;5047332;28;20865;-42
2022/08/31 01:28:34;;;;;;;1.03;0.50;;;11.90;99.90;;;;;;5059234;28;20420;-42
2022/08/31 01:31:05;;;;;;;1.07;0.40;;;11.80;99.90;;;;;;5063504;28;20703;-43
2022/08/31 01:33:54;;;;;;;0.33;0.30;;;11.90;99.90;;;;;;5029988;28;20264;-42
2022/08/31 01:36:23;;;;;;;0.70;0.40;;;11.90;99.90;;;;;;5040131;28;20471;-44
2022/08/31 01:38:51;;;;;;;0.50;0.40;;;11.90;99.90;;;;;;5043975;28;20588;-47
2022/08/31 01:41:18;;;;;;;0.27;0.27;;;11.80;99.90;;;;;;5040016;28;20231;-44
2022/08/31 01:43:45;;;;;;;1.83;0.53;;;11.80;99.90;;;;;;5041092;28;20215;-44
2022/08/31 01:46:13;;;;;;;0.43;0.30;;;11.80;99.90;;;;;;5042179;28;20203;-41
2022/08/31 01:48:42;;;;;;;0.60;0.40;;;11.80;99.90;;;;;;5040376;28;20270;-43
2022/08/31 01:51:11;;;;;;;0.40;0.40;;;11.80;99.90;;;;;;5037211;28;20297;-42
2022/08/31 01:53:37;;;;;;;0.40;0.40;;;11.60;99.90;;;;;;5040684;28;20208;-41
2022/08/31 01:56:11;;;;;;;0.80;0.57;;;11.80;99.90;;;;;;5059613;28;20214;-43
2022/08/31 01:58:38;;;;;;;0.43;0.30;;;11.70;99.90;;;;;;5032318;28;20615;-43
2022/08/31 02:01:37;;;;;;;1.03;0.50;;;11.70;99.90;;;;;;5052205;28;20994;-42
2022/08/31 02:04:06;;;;;;;2.03;0.60;;;11.70;99.90;;;;;;5042084;28;20210;-42
2022/08/31 02:06:33;;;;;;;0.50;0.50;;;11.70;99.90;;;;;;5033983;28;20908;-44
2022/08/31 02:09:00;;;;;;;0.30;0.30;;;11.50;99.90;;;;;;5042327;28;20205;-41
2022/08/31 02:11:28;;;;;;;0.30;0.30;;;11.40;99.90;;;;;;5038713;28;20199;-44
2022/08/31 02:13:56;;;;;;;2.13;0.50;;;11.40;99.90;;;;;;5040835;28;20211;-44
2022/08/31 02:16:23;;;;;;;0.40;0.40;;;11.40;99.90;;;;;;5039484;28;20203;-43
2022/08/31 02:18:50;;;;;;;1.20;0.40;;;11.50;99.90;;;;;;5041575;28;20702;-43
2022/08/31 02:21:17;;;;;;;0.60;0.40;;;11.50;99.90;;;;;;5034514;28;20208;-44
2022/08/31 02:23:44;;;;;;;0.97;0.43;;;11.50;99.90;;;;;;5040277;28;20239;-42
2022/08/31 02:26:11;;;;;;;0.30;0.30;;;11.60;99.90;;;;;;5043137;28;20556;-43
2022/08/31 02:28:40;;;;;;;0.43;0.43;;;11.30;99.90;;;;;;5036618;28;20907;-41
2022/08/31 02:31:07;;;;;;;1.70;0.50;;;11.30;99.90;;;;;;5042254;28;20195;-41
2022/08/31 02:33:44;;;;;;;0.73;0.57;;;11.20;99.90;;;;;;5040016;28;20207;-42
2022/08/31 02:36:12;;;;;;;0.63;0.43;;;11.10;99.90;;;;;;5035664;28;20293;-42
2022/08/31 02:38:39;;;;;;;2.17;0.50;;;11.00;99.90;;;;;;5032823;28;20253;-41
2022/08/31 02:41:07;;;;;;;1.80;0.50;;;11.10;99.90;;;;;;5042280;28;20298;-41
2022/08/31 02:43:35;;;;;;;0.63;0.60;;;11.10;99.90;;;;;;5035743;28;20222;-41
2022/08/31 02:46:03;;;;;;;1.17;0.47;;;11.00;99.90;;;;;;5041750;28;20207;-43
2022/08/31 02:48:36;;;;;;;1.07;0.30;;;10.90;99.90;;;;;;5038375;28;20290;-44
2022/08/31 02:51:06;;;;;;;0.40;0.40;;;10.90;99.90;;;;;;5037082;28;20230;-41
2022/08/31 02:53:34;;;;;;;1.23;0.50;;;10.80;99.90;;;;;;5038637;28;20261;-44
2022/08/31 02:56:02;;;;;;;0.50;0.33;;;10.90;99.90;;;;;;5029897;28;20721;-41
2022/08/31 02:58:29;;;;;;;0.87;0.40;;;11.00;99.90;;;;;;5038156;28;20199;-42
2022/08/31 03:00:57;;;;;;;0.60;0.60;;;11.00;99.90;;;;;;5034687;28;20293;-43
2022/08/31 03:03:25;;;;;;;0.47;0.40;;;10.90;99.90;;;;;;5038506;28;20222;-41
2022/08/31 03:05:53;;;;;;;0.90;0.47;;;10.90;99.90;;;;;;5043445;28;20200;-42
2022/08/31 03:08:19;;;;;;;0.40;0.40;;;10.90;99.90;;;;;;5034647;28;20627;-47
2022/08/31 03:10:49;;;;;;;2.03;0.40;;;11.00;99.90;;;;;;5041390;28;20278;-42
2022/08/31 03:13:17;;;;;;;2.00;0.63;;;11.00;99.90;;;;;;5040005;28;20229;-42
2022/08/31 03:15:44;;;;;;;0.53;0.50;;;11.00;99.90;;;;;;5039755;28;20858;-43
2022/08/31 03:18:13;;;;;;;1.77;0.60;;;11.00;99.90;;;;;;5041016;28;20196;-42
2022/08/31 03:20:42;;;;;;;0.60;0.60;;;11.00;99.90;;;;;;5039218;28;20276;-42
2022/08/31 03:23:11;;;;;;;0.97;0.60;;;11.00;99.90;;;;;;5036980;28;20219;-41
2022/08/31 03:25:38;;;;;;;0.70;0.50;;;11.10;99.90;;;;;;5036057;28;20235;-45
2022/08/31 03:28:05;;;;;;;0.53;0.50;;;11.00;99.90;;;;;;5058211;28;20314;-43
2022/08/31 03:30:34;;;;;;;0.47;0.37;;;11.00;99.90;;;;;;5054715;28;20188;-42
2022/08/31 03:33:06;;;;;;;1.03;0.40;;;11.00;99.90;;;;;;5039576;28;20227;-42
2022/08/31 03:35:34;;;;;;;0.67;0.50;;;10.90;99.90;;;;;;5037499;28;20201;-45
2022/08/31 03:38:04;;;;;;;0.90;0.43;;;10.90;99.90;;;;;;5040950;28;20227;-47
2022/08/31 03:40:31;;;;;;;0.97;0.60;;;10.90;99.90;;;;;;5025155;28;20998;-43
2022/08/31 03:42:58;;;;;;;0.90;0.50;;;10.90;99.90;;;;;;5041419;28;20211;-43
2022/08/31 03:45:27;;;;;;;0.47;0.47;;;10.90;99.90;;;;;;5037505;28;20202;-42
2022/08/31 03:47:55;;;;;;;0.63;0.63;;;10.80;99.90;;;;;;5040315;28;20238;-42
2022/08/31 03:50:24;;;;;;;2.20;0.60;;;10.80;99.90;;;;;;5038516;28;20568;-41
2022/08/31 03:52:59;;;;;;;1.27;0.63;;;10.80;99.90;;;;;;5041350;28;20236;-41
2022/08/31 03:55:28;;;;;;;0.77;0.53;;;10.80;99.90;;;;;;5034359;28;20211;-41
2022/08/31 03:57:55;;;;;;;0.43;0.43;;;10.80;99.90;;;;;;5041312;28;20207;-43
2022/08/31 04:00:23;;;;;;;2.17;0.60;;;10.70;99.90;;;;;;5040337;28;20567;-45
2022/08/31 04:02:58;;;;;;;1.67;0.50;;;10.70;99.90;;;;;;5037821;28;20215;-43
2022/08/31 04:05:45;;;;;;;0.60;0.60;;;10.70;99.90;;;;;;5045610;28;20199;-42
2022/08/31 04:08:13;;;;;;;0.83;0.77;;;10.70;99.90;;;;;;5041906;28;20425;-43
2022/08/31 04:10:48;;;;;;;0.70;0.60;;;10.60;99.90;;;;;;5041074;28;20215;-43
2022/08/31 04:13:34;;;;;;;0.60;0.53;;;10.60;99.90;;;;;;5041170;28;20234;-45
2022/08/31 04:16:33;;;;;;;0.93;0.60;;;10.50;99.90;;;;;;4993376;28;20201;-42
2022/08/31 04:19:07;;;;;;;1.13;0.70;;;10.50;99.90;;;;;;5042748;28;20264;-42
2022/08/31 04:21:39;;;;;;;2.10;0.73;;;10.50;99.90;;;;;;5058923;28;20316;-41
2022/08/31 04:24:06;;;;;;;0.87;0.87;;;10.50;99.90;;;;;;5039837;28;20253;-41
2022/08/31 04:26:36;;;;;;;1.47;0.67;;;10.50;99.90;;;;;;5031799;28;20218;-47
2022/08/31 04:29:06;;;;;;;0.53;0.50;;;10.50;99.90;;;;;;5039873;28;20214;-45
2022/08/31 04:31:35;;;;;;;2.53;0.90;;;10.60;99.90;;;;;;5041785;28;20867;-41
2022/08/31 04:34:02;;;;;;;0.50;0.50;;;10.60;99.90;;;;;;5041695;28;20218;-43
2022/08/31 04:36:30;;;;;;;1.07;0.80;;;10.60;99.90;;;;;;5040262;28;20958;-44
2022/08/31 04:39:01;;;;;;;1.30;0.80;;;10.60;99.90;;;;;;5042516;28;20596;-42
2022/08/31 04:41:29;;;;;;;0.97;0.97;;;10.60;99.90;;;;;;5035872;28;20218;-41
2022/08/31 04:44:02;;;;;;;0.70;0.70;;;10.60;99.90;;;;;;5043325;28;20282;-42
2022/08/31 04:46:30;;;;;;;1.10;0.67;;;10.70;99.90;;;;;;5039530;28;20192;-42
2022/08/31 04:48:58;;;;;;;1.93;0.73;;;10.70;99.90;;;;;;5046541;28;20207;-41
2022/08/31 04:51:27;;;;;;;2.53;0.70;;;10.70;99.90;;;;;;5039041;28;20861;-42
2022/08/31 04:53:54;;;;;;;1.63;0.80;;;10.70;99.90;;;;;;5045586;28;20678;-45
2022/08/31 04:56:23;;;;;;;2.40;1.10;;;10.70;99.90;;;;;;5033284;28;20235;-41
2022/08/31 04:58:52;;;;;;;1.37;1.00;;;10.70;99.90;;;;;;5041457;28;20204;-41
2022/08/31 05:01:23;;;;;;;2.30;0.97;;;10.70;99.90;;;;;;5039537;28;20238;-41
2022/08/31 05:04:09;;;;;;;1.10;1.00;;;10.70;99.90;;;;;;5048636;28;20203;-43
2022/08/31 05:06:39;;;;;;;0.80;0.80;;;10.80;99.90;;;;;;5040391;28;21015;-41
2022/08/31 05:09:09;;;;;;;3.23;0.60;;;10.70;99.90;;;;;;5042999;28;20230;-41
2022/08/31 05:11:41;;;;;;;2.30;0.73;;;10.80;99.90;;;;;;5036507;28;20207;-45
2022/08/31 05:14:09;;;;;;;1.10;1.00;;;10.70;99.90;;;;;;5047382;28;20211;-41
2022/08/31 05:16:42;;;;;;;0.63;0.63;;;10.70;99.90;;;;;;5041554;28;20809;-41
2022/08/31 05:19:09;;;;;;;1.13;0.70;;;10.70;99.90;;;;;;5042751;28;20199;-44
2022/08/31 05:21:39;;;;;;;1.33;0.80;;;10.80;99.90;;;;;;5040656;28;20223;-42
2022/08/31 05:24:09;;;;;;;2.20;1.30;;;10.80;99.90;;;;;;5040081;28;20210;-42
2022/08/31 05:26:41;;;;;;;1.27;0.90;;;10.80;99.90;;;;;;5049998;28;20207;-41
2022/08/31 05:29:09;;;;;;;3.03;1.00;;;10.80;99.90;;;;;;5034701;28;20658;-43
2022/08/31 05:31:37;;;;;;;2.43;0.87;;;10.80;99.90;;;;;;5056857;28;20191;-41
2022/08/31 05:34:06;;;;;;;1.47;0.97;;;10.90;99.90;;;;;;5042477;28;20686;-42
2022/08/31 05:36:37;;;;;;;2.57;0.80;;;10.90;99.90;;;;;;5039106;28;20199;-41
2022/08/31 05:39:08;;;;;;;1.23;0.80;;;11.00;99.90;;;;;;5040788;28;20306;-42
2022/08/31 05:41:35;;;;;;;4.00;0.80;;;11.00;99.90;;;;;;5034533;28;20264;-41
2022/08/31 05:44:04;;;;;;;0.80;0.80;;;11.00;99.90;;;;;;5043500;28;20206;-43
2022/08/31 05:46:33;;;;;;;2.83;0.80;;;11.10;99.90;;;;;;5037576;28;20286;-40
2022/08/31 05:49:01;;;;;;;2.20;0.80;;;11.20;99.90;;;;;;5042503;28;20680;-41
2022/08/31 05:51:30;;;;;;;2.13;0.80;;;11.20;99.90;;;;;;5037562;28;20197;-41
2022/08/31 05:53:58;;;;;;;1.13;0.70;;;11.30;99.90;;;;;;5039927;28;20615;-41
2022/08/31 05:56:25;;;;;;;1.17;0.73;;;11.40;99.90;;;;;;5036211;28;20211;-42
2022/08/31 05:58:55;;;;;;;1.20;0.60;;;11.40;99.90;;;;;;5035534;28;20299;-44
2022/08/31 06:01:29;;;;;;;1.63;0.47;;;11.50;99.90;;;;;;5031694;28;20211;-41
2022/08/31 06:04:06;;;;;;;1.47;0.80;;;11.60;99.90;;;;;;5037093;28;20202;-42
2022/08/31 06:06:36;;;;;;;1.57;0.73;;;11.70;99.90;;;;;;5038102;28;20241;-41
2022/08/31 06:09:04;;;;;;;4.40;0.70;;;11.70;99.90;;;;;;5039327;28;20199;-41
2022/08/31 06:11:33;;;;;;;0.87;0.70;;;11.80;99.90;;;;;;5041392;28;20218;-41
2022/08/31 06:14:02;;;;;;;1.37;0.70;;;11.90;99.90;;;;;;5036003;28;20211;-42
2022/08/31 06:16:31;;;;;;;2.63;0.80;;;12.00;99.90;;;;;;5040656;28;20452;-41
2022/08/31 06:19:02;;;;;;;3.47;1.33;;;12.10;99.90;;;;;;5041324;28;20200;-42
2022/08/31 06:21:32;;;;;;;1.33;1.10;;;12.20;99.90;;;;;;5038573;28;20882;-41
2022/08/31 06:24:03;;;;;;;3.40;1.00;;;12.30;99.90;;;;;;5039560;28;20211;-41
2022/08/31 06:26:32;;;;;;;2.90;1.03;;;12.40;99.90;;;;;;5038689;28;20214;-41
2022/08/31 06:29:02;;;;;;;3.27;1.10;;;12.60;99.90;;;;;;5036422;28;20207;-43
2022/08/31 06:31:33;;;;;;;2.53;1.00;;;12.70;99.90;;;;;;5040536;28;20282;-41
2022/08/31 06:34:03;;;;;;;3.77;1.00;;;12.90;99.90;;;;;;5040235;28;20676;-41
2022/08/31 06:36:52;;;;;;;3.50;0.70;;;13.00;99.90;;;;;;5042885;28;20203;-41
2022/08/31 06:39:34;;;;;;;3.17;0.90;;;13.20;99.90;;;;;;5040398;28;20211;-42
2022/08/31 06:42:13;;;;;;;2.23;0.50;;;13.30;99.90;;;;;;5036094;28;20222;-41
2022/08/31 06:45:09;;;;;;;4.07;0.87;;;13.50;99.90;;;;;;5045130;28;20212;-41
2022/08/31 06:47:41;;;;;;;0.97;0.70;;;13.70;99.90;;;;;;5042418;28;20226;-42
2022/08/31 06:50:11;;;;;;;1.23;0.40;;;13.80;99.90;;;;;;5031715;28;20778;-43
2022/08/31 06:52:38;;;;;;;1.23;1.03;;;13.90;99.90;;;;;;5041742;28;20590;-41
2022/08/31 06:55:20;;;;;;;0.70;0.60;;;14.10;99.90;;;;;;5051817;28;20203;-42
2022/08/31 06:58:10;;;;;;;4.07;0.80;;;14.30;99.90;;;;;;5038569;28;20207;-41
2022/08/31 07:00:57;;;;;;;2.07;0.80;;;14.30;99.90;;;;;;5030583;28;20209;-42
2022/08/31 07:03:33;;;;;;;0.50;0.50;;;14.50;99.90;;;;;;5058849;28;20215;-43
2022/08/31 07:06:06;;;;;;;0.90;0.50;;;14.60;99.90;;;;;;5036720;28;20249;-44
2022/08/31 07:08:33;;;;;;;2.73;0.50;;;14.80;99.90;;;;;;5030270;28;20207;-43
2022/08/31 07:11:02;;;;;;;0.77;0.50;;;14.90;99.90;;;;;;5034899;28;20900;-42
2022/08/31 07:13:30;;;;;;;1.77;0.47;;;15.00;99.90;;;;;;5037241;28;20277;-43
2022/08/31 07:16:05;;;;;;;0.77;0.50;;;15.10;99.90;;;;;;5029323;28;20600;-42
2022/08/31 07:18:32;;;;;;;1.07;0.50;;;15.20;99.90;;;;;;5055146;28;20199;-41
2022/08/31 07:21:08;;;;;;;1.00;0.40;;;15.30;99.90;;;;;;5037674;28;20207;-42
2022/08/31 07:23:35;;;;;;;1.47;0.53;;;15.50;99.90;;;;;;5038706;28;20608;-44
2022/08/31 07:26:13;;;;;;;0.77;0.43;;;15.60;99.90;;;;;;5037156;28;20215;-42
2022/08/31 07:28:42;;;;;;;2.50;0.63;;;15.70;99.90;;;;;;5031132;28;20305;-43
2022/08/31 07:31:12;;;;;;;1.37;0.30;;;15.90;99.90;;;;;;5032344;28;20216;-41
2022/08/31 07:33:39;;;;;;;1.33;0.30;;;15.90;99.90;;;;;;5036416;28;20276;-43
2022/08/31 07:36:09;;;;;;;1.90;0.87;;;16.30;99.90;;;;;;5042012;28;20475;-42
2022/08/31 07:44:33;;;;;;;0.60;0.30;;;16.50;99.90;;;;;;5039869;28;20680;-42
2022/08/31 07:47:01;;;;;;;2.80;0.50;;;16.60;99.90;;;;;;5033185;28;20199;-43
2022/08/31 07:49:29;;;;;;;1.37;0.40;;;16.70;99.90;;;;;;5042363;28;20199;-41
2022/08/31 07:52:10;;;;;;;2.30;0.40;;;16.90;99.90;;;;;;5039910;28;20218;-41
2022/08/31 07:55:03;;;;;;;1.03;0.40;;;17.00;99.90;;;;;;5035944;28;20272;-44
2022/08/31 07:57:49;;;;;;;1.80;0.40;;;17.10;99.90;;;;;;5050382;28;20876;-41
2022/08/31 08:00:19;;;;;;;1.13;0.33;;;17.10;99.90;;;;;;5039321;28;20207;-44
2022/08/31 08:02:46;;;;;;;0.73;0.40;;;17.20;99.90;;;;;;5031630;28;20269;-42
2022/08/31 08:05:21;;;;;;;0.40;0.40;;;17.40;99.90;;;;;;5048165;28;20257;-42
2022/08/31 08:08:07;;;;;;;0.90;0.40;;;17.50;99.90;;;;;;5037855;28;20284;-42
2022/08/31 08:10:52;;;;;;;0.30;0.30;;;17.70;99.90;;;;;;5041718;28;20223;-41
2022/08/31 08:13:44;;;;;;;1.80;0.33;;;17.80;99.90;;;;;;5039253;28;20227;-41
2022/08/31 08:16:28;;;;;;;0.30;0.30;;;17.90;99.90;;;;;;5032069;28;20228;-43
2022/08/31 08:19:08;;;;;;;0.67;0.53;;;18.00;99.90;;;;;;5038087;28;20261;-42
2022/08/31 08:21:35;;;;;;;0.80;0.40;;;18.10;99.90;;;;;;5043375;28;20239;-43
2022/08/31 08:24:02;;;;;;;0.70;0.53;;;18.20;99.90;;;;;;5037753;28;20219;-41
2022/08/31 08:26:49;;;;;;;10.93;0.97;;;18.30;99.90;;;;;;5044905;28;20571;-42
2022/08/31 08:29:33;;;;;;;1.00;0.50;;;18.50;99.90;;;;;;5041768;28;20298;-41
2022/08/31 08:32:00;;;;;;;1.43;0.83;;;18.50;99.90;;;;;;5029640;28;20696;-41
2022/08/31 08:34:27;;;;;;;3.70;0.70;;;18.50;99.90;;;;;;5041846;28;20187;-42
2022/08/31 08:36:54;;;;;;;2.07;0.57;;;18.60;99.90;;;;;;5040864;28;20222;-43
2022/08/31 08:39:23;;;;;;;1.53;0.40;;;18.70;99.90;;;;;;5040392;28;20195;-44
2022/08/31 08:42:02;;;;;;;1.13;0.80;;;18.30;99.90;;;;;;5037819;28;20222;-43
2022/08/31 08:44:32;;;;;;;4.50;0.40;;;18.90;99.90;;;;;;5035727;28;20306;-44
2022/08/31 08:47:05;;;;;;;3.63;0.40;;;19.00;99.90;;;;;;5027237;28;20711;-41
2022/08/31 08:49:45;;;;;;;1.57;0.40;;;19.10;99.90;;;;;;5043559;28;20199;-42
2022/08/31 08:52:21;;;;;;;1.30;0.40;;;19.10;99.90;;;;;;5038527;28;20215;-42
2022/08/31 08:54:49;;;;;;;1.10;0.47;;;19.20;99.90;;;;;;5041909;28;20749;-42
2022/08/31 08:57:20;;;;;;;1.73;0.60;;;19.30;99.90;;;;;;5035301;28;20188;-43
2022/08/31 08:59:52;;;;;;;0.70;0.60;;;19.30;99.90;;;;;;5038914;28;20200;-41
2022/08/31 09:02:26;;;;;;;0.30;0.30;;;19.30;99.90;;;;;;5023197;28;20297;-45
2022/08/31 09:05:14;;;;;;;0.40;0.40;;;19.20;99.90;;;;;;5039452;28;20202;-41
2022/08/31 09:08:16;;;;;;;0.47;0.40;;;19.20;99.90;;;;;;5039876;28;20191;-41
2022/08/31 09:10:55;;;;;;;1.63;0.30;;;19.20;99.90;;;;;;5057814;28;20196;-41
2022/08/31 09:13:35;;;;;;;1.90;0.30;;;19.30;99.90;;;;;;5035805;28;21013;-42
2022/08/31 09:16:19;;;;;;;0.50;0.50;;;19.40;99.90;;;;;;5032062;28;20207;-42
2022/08/31 09:18:52;;;;;;;0.40;0.40;;;19.70;99.90;;;;;;5029387;28;20207;-41
2022/08/31 09:21:22;;;;;;;0.83;0.30;;;19.70;99.90;;;;;;5039042;28;20957;-43
2022/08/31 09:24:00;;;;;;;0.53;0.30;;;19.80;99.90;;;;;;5039224;28;21100;-44
2022/08/31 09:26:29;;;;;;;0.67;0.27;;;19.90;99.90;;;;;;5047063;28;20281;-43
2022/08/31 09:29:04;;;;;;;0.30;0.30;;;20.10;99.90;;;;;;5040938;28;20198;-42
2022/08/31 09:31:36;;;;;;;2.70;0.37;;;20.30;99.90;;;;;;5033192;28;20578;-40
2022/08/31 09:34:07;;;;;;;2.40;0.50;;;20.40;99.90;;;;;;5030863;28;20203;-42
2022/08/31 09:36:39;;;;;;;2.00;0.40;;;20.50;99.90;;;;;;5042997;28;20203;-42
2022/08/31 09:39:18;;;;;;;4.13;0.50;;;20.50;99.90;;;;;;5035498;28;20576;-43
2022/08/31 09:41:45;;;;;;;2.20;0.30;;;20.40;99.40;;;;;;5043593;28;20206;-43
2022/08/31 09:44:24;;;;;;;1.17;0.47;;;20.50;99.40;;;;;;5037520;28;20953;-40
2022/08/31 09:46:55;;;;;;;0.63;0.40;;;20.70;98.50;;;;;;5036080;28;20276;-40
2022/08/31 09:49:27;;;;;;;0.97;0.30;;;20.80;98.10;;;;;;5034081;28;20261;-42
2022/08/31 09:52:19;;;;;;;1.07;0.30;;;20.90;96.20;;;;;;5037922;28;20305;-39
2022/08/31 09:55:12;;;;;;;0.50;0.50;;;20.90;94.20;;;;;;5035295;28;20187;-39
2022/08/31 09:57:49;;;;;;;0.90;0.30;;;20.80;94.30;;;;;;5040535;28;21845;-40
2022/08/31 10:00:27;;;;;;;0.83;0.33;;;20.90;94.10;;;;;;5039963;28;20202;-41
2022/08/31 10:02:58;;;;;;;0.50;0.33;;;20.90;94.20;;;;;;5027707;28;20246;-40
2022/08/31 10:05:39;;;;;;;0.60;0.27;;;20.80;94.10;;;;;;5039960;28;20192;-40
2022/08/31 10:08:17;;;;;;;1.10;0.40;;;20.60;95.00;;;;;;5039844;28;20207;-41
2022/08/31 10:10:46;;;;;;;0.57;0.30;;;20.60;95.30;;;;;;5029215;28;20198;-39
2022/08/31 10:13:15;;;;;;;0.30;0.30;;;20.60;95.70;;;;;;5039134;28;20226;-40
2022/08/31 10:15:50;;;;;;;0.40;0.40;;;20.70;94.20;;;;;;5041841;28;20190;-41
2022/08/31 10:18:25;;;;;;;0.30;0.30;;;20.70;93.30;;;;;;5025847;28;20217;-39
2022/08/31 10:21:04;;;;;;;2.17;0.40;;;20.90;92.20;;;;;;5044174;28;20195;-42
2022/08/31 10:23:36;;;;;;;1.63;0.40;;;21.00;91.30;;;;;;5041861;28;20746;-40
2022/08/31 10:26:08;;;;;;;1.13;0.30;;;21.00;90.20;;;;;;5036900;28;20401;-40
2022/08/31 10:28:41;;;;;;;0.30;0.30;;;21.00;90.50;;;;;;5037829;28;20207;-40
2022/08/31 10:31:12;;;;;;;0.30;0.30;;;21.20;89.40;;;;;;5043136;28;20534;-43
2022/08/31 10:36:35;;;;;;;1.30;0.30;;;21.30;87.40;;;;;;5037252;28;20211;-41
2022/08/31 10:39:23;;;;;;;1.93;0.20;;;21.30;86.20;;;;;;5033554;28;20206;-41
2022/08/31 10:41:50;;;;;;;0.50;0.30;;;21.50;84.50;;;;;;5038810;28;20211;-41
2022/08/31 10:44:25;;;;;;;0.40;0.27;;;21.60;83.80;;;;;;5037252;28;20272;-42
2022/08/31 10:46:57;;;;;;;0.43;0.43;;;21.80;82.30;;;;;;5038270;28;20427;-41
2022/08/31 10:49:26;;;;;;;0.73;0.50;;;21.60;82.30;;;;;;5014174;28;20795;-44
2022/08/31 10:52:04;;;;;;;1.07;0.43;;;21.70;82.00;;;;;;5036955;28;20211;-41
2022/08/31 10:54:39;;;;;;;0.40;0.40;;;21.80;80.90;;;;;;5035010;28;20199;-41
2022/08/31 10:57:18;;;;;;;0.30;0.30;;;21.90;79.80;;;;;;5040704;28;20310;-42
2022/08/31 10:59:53;;;;;;;0.30;0.30;;;21.80;79.30;;;;;;5033347;28;20210;-41
2022/08/31 11:02:37;;;;;;;0.77;0.50;;;21.90;79.60;;;;;;5035730;28;20223;-41
2022/08/31 11:05:25;;;;;;;0.53;0.50;;;22.10;78.70;;;;;;5026251;28;20207;-41
2022/08/31 11:08:01;;;;;;;1.10;0.33;;;21.90;79.20;;;;;;5043967;28;20679;-42
2022/08/31 11:10:39;;;;;;;3.03;0.40;;;22.00;79.60;;;;;;5046435;28;20183;-43
2022/08/31 11:13:15;;;;;;;1.60;0.50;;;21.80;79.60;;;;;;5045963;28;20219;-42
2022/08/31 11:16:07;;;;;;;2.77;0.50;;;21.70;81.30;;;;;;5037135;28;20257;-42
2022/08/31 11:19:06;;;;;;;0.67;0.40;;;21.70;79.40;;;;;;5037377;28;20203;-43
2022/08/31 11:21:58;;;;;;;1.80;0.40;;;21.70;79.70;;;;;;5024600;28;20219;-42
2022/08/31 11:25:06;;;;;;;0.93;0.40;;;22.10;79.20;;;;;;5044793;28;20227;-44
2022/08/31 11:27:35;;;;;;;0.90;0.50;;;22.20;78.20;;;;;;5037014;28;20265;-43
2022/08/31 11:30:10;;;;;;;0.30;0.30;;;22.20;77.80;;;;;;5047325;28;20218;-46
2022/08/31 11:32:41;;;;;;;0.40;0.40;;;22.30;77.00;;;;;;5044792;28;20210;-41
2022/08/31 11:35:09;;;;;;;0.40;0.30;;;22.30;76.00;;;;;;5039265;28;21256;-42
2022/08/31 11:37:54;;;;;;;0.57;0.40;;;22.30;75.30;;;;;;5029866;28;20226;-43
2022/08/31 11:41:04;;;;;;;0.50;0.40;;;22.50;74.00;;;;;;5045538;28;20621;-42
2022/08/31 11:43:50;;;;;;;0.50;0.50;;;22.60;72.60;;;;;;5022235;28;20362;-42
2022/08/31 11:47:05;;;;;;;0.80;0.30;;;22.50;73.30;;;;;;5038905;28;20203;-42
2022/08/31 11:49:43;;;;;;;3.47;0.40;;;22.30;73.40;;;;;;5022308;28;20225;-43
2022/08/31 11:52:28;;;;;;;2.80;0.70;;;22.30;73.80;;;;;;5043186;28;20290;-44
2022/08/31 11:55:27;;;;;;;1.52;0.40;;;22.30;74.70;;;;;;5038472;28;20191;-41
2022/08/31 11:58:18;;;;;;;2.28;0.60;;;22.30;74.90;;;;;;5015089;28;20268;-44
2022/08/31 12:00:50;;;;;;;0.80;0.50;;;22.40;74.10;;;;;;5043366;28;20658;-42
2022/08/31 12:03:51;;;;;;;0.40;0.30;;;22.60;73.50;;;;;;5036419;28;20223;-41
2022/08/31 12:07:04;;;;;;;1.48;0.52;;;22.70;72.00;;;;;;5034242;28;20284;-42
2022/08/31 12:10:17;;;;;;;0.93;0.52;;;23.00;69.60;;;;;;5028525;28;20218;-46
2022/08/31 12:13:06;;;;;;;0.77;0.35;;;23.10;70.20;;;;;;5043808;28;20420;-44
2022/08/31 12:15:45;;;;;;;0.77;0.40;;;23.10;69.50;;;;;;5043101;28;20294;-41
2022/08/31 12:18:29;;;;;;;0.30;0.30;;;23.20;70.00;;;;;;5037417;28;20207;-43
2022/08/31 12:24:08;;;;;;;0.65;0.45;;;22.80;70.60;;;;;;5030325;28;20700;-43
2022/08/31 12:26:46;;;;;;;0.25;0.25;;;22.70;70.20;;;;;;5042360;28;20384;-42
2022/08/31 12:29:21;;;;;;;0.98;0.30;;;22.70;70.40;;;;;;5027568;28;20215;-42
2022/08/31 12:32:07;;;;;;;0.32;0.30;;;22.60;70.40;;;;;;5034785;28;20590;-43
2022/08/31 12:34:38;;;;;;;0.85;0.30;;;22.40;70.20;;;;;;5032703;28;20261;-41
2022/08/31 12:37:19;;;;;;;1.25;0.40;;;22.50;70.30;;;;;;5034209;28;20324;-43
2022/08/31 12:39:45;;;;;;;0.40;0.32;;;22.70;68.20;;;;;;5029551;28;20521;-43
2022/08/31 12:42:12;;;;;;;0.30;0.30;;;22.80;69.00;;;;;;5046108;28;20219;-44
2022/08/31 12:44:46;;;;;;;0.82;0.40;;;23.00;67.50;;;;;;5048564;28;20549;-43
2022/08/31 12:47:25;;;;;;;0.55;0.35;;;23.10;66.60;;;;;;5037387;28;20205;-42
2022/08/31 12:50:10;;;;;;;1.02;0.50;;;23.00;66.40;;;;;;5031128;28;20221;-41
2022/08/31 12:53:20;;;;;;;1.27;0.35;;;23.20;67.60;;;;;;5036376;28;20251;-39
2022/08/31 12:55:55;;;;;;;1.52;0.40;;;23.40;66.30;;;;;;5031108;28;20203;-41
2022/08/31 12:58:41;;;;;;;1.40;0.43;;;23.00;67.20;;;;;;5045272;28;20206;-41
2022/08/31 13:01:11;;;;;;;0.45;0.45;;;22.80;68.20;;;;;;5036124;28;20210;-44
2022/08/31 13:03:45;;;;;;;0.50;0.50;;;22.70;68.50;;;;;;5032272;28;20311;-41
2022/08/31 13:06:26;;;;;;;1.25;0.50;;;22.70;68.70;;;;;;5043694;28;20207;-42
2022/08/31 13:08:54;;;;;;;0.50;0.40;;;22.70;68.60;;;;;;5034955;28;20210;-43
2022/08/31 13:11:27;;;;;;;0.40;0.40;;;22.60;69.20;;;;;;5029465;28;20624;-45
2022/08/31 13:14:07;;;;;;;0.50;0.40;;;22.60;69.30;;;;;;5037648;28;20257;-45
2022/08/31 13:16:33;;;;;;;0.63;0.50;;;22.80;68.90;;;;;;5043142;28;20654;-41
2022/08/31 13:19:04;;;;;;;0.50;0.40;;;23.30;68.50;;;;;;5035642;28;21256;-43
2022/08/31 13:21:34;;;;;;;0.40;0.30;;;23.80;67.50;;;;;;5043391;28;20207;-41
2022/08/31 13:24:06;;;;;;;1.33;0.40;;;24.40;65.10;;;;;;5027677;28;20986;-42
2022/08/31 13:26:34;;;;;;;0.75;0.50;;;25.00;63.20;;;;;;5029893;28;20265;-45
2022/08/31 13:29:06;;;;;;;1.73;0.40;;;25.30;61.80;;;;;;5036013;28;20219;-41
2022/08/31 13:31:37;;;;;;;0.30;0.30;;;25.40;62.60;;;;;;5039863;28;20608;-44
2022/08/31 13:34:07;;;;;;;0.47;0.43;;;25.60;61.00;;;;;;5030842;28;20204;-42
2022/08/31 13:36:40;;;;;;;0.90;0.30;;;26.10;59.70;;;;;;5042246;28;20203;-43